createdAt,value
2023-10-29T00:00:02.896Z,13.50
2023-10-29T00:03:16.366Z,12.90
2023-10-29T00:06:03.131Z,12.60
2023-10-29T00:08:49.337Z,10.70
2023-10-29T00:11:35.813Z,12.40
2023-10-29T00:14:22.987Z,13.70
2023-10-29T00:17:09.536Z,12.90
2023-10-29T00:19:56.445Z,13.70
2023-10-29T00:22:42.970Z,12.60
2023-10-29T00:25:29.527Z,13.70
2023-10-29T00:28:16.825Z,13.60
2023-10-29T00:31:03.556Z,12.80
2023-10-29T00:33:50.102Z,13.10
2023-10-29T00:36:36.725Z,12.40
2023-10-29T00:39:23.843Z,13.30
2023-10-29T00:42:12.063Z,13.40
2023-10-29T00:44:58.316Z,14.10
2023-10-29T00:47:45.016Z,12.90
2023-10-29T00:50:32.467Z,14.10
2023-10-29T00:53:18.996Z,13.40
2023-10-29T00:56:06.963Z,13.90
2023-10-29T00:58:54.288Z,13.50
2023-10-29T01:01:40.810Z,11.50
2023-10-29T01:04:27.335Z,14.20
2023-10-29T01:07:14.022Z,15.00
2023-10-29T01:10:00.948Z,14.40
2023-10-29T01:12:47.531Z,14.70
2023-10-29T01:15:34.428Z,13.90
2023-10-29T01:18:22.330Z,13.30
2023-10-29T01:21:10.143Z,13.20
2023-10-29T01:23:56.842Z,13.40
2023-10-29T01:26:43.358Z,12.30
2023-10-29T01:29:29.977Z,13.00
2023-10-29T01:32:16.297Z,13.50
2023-10-29T01:35:03.363Z,12.50
2023-10-29T01:37:51.575Z,13.50
2023-10-29T01:40:38.255Z,13.40
2023-10-29T01:43:25.774Z,12.70
2023-10-29T01:46:12.297Z,13.00
2023-10-29T01:48:59.135Z,12.80
2023-10-29T01:51:45.991Z,11.80
2023-10-29T01:54:32.597Z,11.40
2023-10-29T01:57:18.921Z,13.10
2023-10-29T02:00:07.237Z,12.50
2023-10-29T02:03:03.313Z,12.90
2023-10-29T02:05:49.983Z,12.30
2023-10-29T02:08:36.578Z,12.20
2023-10-29T02:11:22.959Z,12.10
2023-10-29T02:14:09.521Z,12.90
2023-10-29T02:16:56.986Z,12.80
2023-10-29T02:19:43.945Z,11.30
2023-10-29T02:22:30.897Z,12.80
2023-10-29T02:25:17.128Z,13.30
2023-10-29T02:28:03.392Z,13.20
2023-10-29T02:30:51.623Z,13.30
2023-10-29T02:33:38.467Z,13.70
2023-10-29T02:36:24.904Z,12.80
2023-10-29T02:39:13.638Z,12.40
2023-10-29T02:42:00.244Z,13.40
2023-10-29T02:44:47.229Z,13.70
2023-10-29T02:47:34.148Z,13.10
2023-10-29T02:50:20.896Z,14.20
2023-10-29T02:53:07.781Z,13.50
2023-10-29T02:55:59.109Z,14.80
2023-10-29T02:58:45.874Z,14.60
2023-10-29T03:01:32.443Z,14.80
2023-10-29T03:04:19.280Z,13.20
2023-10-29T03:07:05.802Z,13.60
2023-10-29T03:09:52.872Z,12.80
2023-10-29T03:12:39.468Z,15.30
2023-10-29T03:15:27.258Z,12.90
2023-10-29T03:18:14.904Z,14.90
2023-10-29T03:21:01.709Z,14.60
2023-10-29T03:23:48.655Z,15.20
2023-10-29T03:26:35.674Z,16.40
2023-10-29T03:29:23.274Z,14.60
2023-10-29T03:32:09.850Z,14.10
2023-10-29T03:34:56.510Z,14.00
2023-10-29T03:37:43.354Z,14.80
2023-10-29T03:40:30.869Z,14.50
2023-10-29T03:43:17.269Z,15.10
2023-10-29T03:46:11.184Z,15.50
2023-10-29T03:48:57.670Z,16.00
2023-10-29T03:51:46.209Z,14.70
2023-10-29T03:54:35.406Z,16.50
2023-10-29T03:57:22.050Z,15.60
2023-10-29T04:00:10.310Z,12.00
2023-10-29T04:02:59.953Z,13.20
2023-10-29T04:05:47.586Z,17.10
2023-10-29T04:08:34.333Z,17.00
2023-10-29T04:11:21.204Z,16.50
2023-10-29T04:14:08.051Z,15.50
2023-10-29T04:16:54.495Z,17.70
2023-10-29T04:19:41.234Z,16.20
2023-10-29T04:22:27.754Z,12.40
2023-10-29T04:25:14.478Z,18.40
2023-10-29T04:28:00.752Z,17.90
2023-10-29T04:30:47.873Z,17.30
2023-10-29T04:33:34.676Z,16.50
2023-10-29T04:36:25.756Z,15.30
2023-10-29T04:39:12.225Z,13.00
2023-10-29T04:41:58.920Z,15.10
2023-10-29T04:44:45.179Z,15.40
2023-10-29T04:47:31.693Z,17.00
2023-10-29T04:50:18.127Z,15.90
2023-10-29T04:53:04.599Z,16.80
2023-10-29T04:55:51.253Z,17.30
2023-10-29T04:58:38.385Z,16.70
2023-10-29T05:01:26.086Z,18.50
2023-10-29T05:04:12.601Z,16.30
2023-10-29T05:06:59.493Z,18.40
2023-10-29T05:09:45.899Z,17.10
2023-10-29T05:12:32.613Z,13.60
2023-10-29T05:15:18.838Z,14.90
2023-10-29T05:18:05.965Z,17.30
2023-10-29T05:20:52.559Z,18.50
2023-10-29T05:23:39.701Z,17.60
2023-10-29T05:26:26.150Z,18.10
2023-10-29T05:29:12.676Z,17.10
2023-10-29T05:31:59.610Z,18.40
2023-10-29T05:34:46.068Z,17.80
2023-10-29T05:37:33.050Z,16.30
2023-10-29T05:40:19.615Z,17.30
2023-10-29T05:43:06.310Z,17.10
2023-10-29T05:45:52.838Z,18.80
2023-10-29T05:48:39.707Z,18.90
2023-10-29T05:51:25.810Z,18.40
2023-10-29T05:54:12.179Z,19.10
2023-10-29T05:56:59.492Z,17.50
2023-10-29T05:59:46.249Z,17.40
2023-10-29T06:02:33.462Z,19.70
2023-10-29T06:05:20.387Z,19.60
2023-10-29T06:08:07.167Z,18.10
2023-10-29T06:10:53.837Z,18.60
2023-10-29T06:13:40.165Z,18.50
2023-10-29T06:16:26.745Z,16.10
2023-10-29T06:19:13.170Z,15.60
2023-10-29T06:21:59.820Z,19.00
2023-10-29T06:24:46.638Z,17.40
2023-10-29T06:27:33.505Z,16.90
2023-10-29T06:30:19.804Z,17.70
2023-10-29T06:33:06.395Z,17.70
2023-10-29T06:35:53.338Z,15.60
2023-10-29T06:38:40.110Z,19.40
2023-10-29T06:41:26.402Z,18.00
2023-10-29T06:44:12.876Z,17.70
2023-10-29T06:46:59.442Z,18.20
2023-10-29T06:49:45.895Z,17.60
2023-10-29T06:52:32.665Z,19.00
2023-10-29T06:55:19.162Z,17.60
2023-10-29T06:58:05.859Z,18.90
2023-10-29T07:00:53.969Z,19.10
2023-10-29T07:03:40.576Z,17.20
2023-10-29T07:06:27.300Z,18.10
2023-10-29T07:09:16.543Z,18.20
2023-10-29T07:12:03.084Z,14.40
2023-10-29T07:14:50.805Z,17.20
2023-10-29T07:17:38.145Z,17.80
2023-10-29T07:20:24.488Z,17.50
2023-10-29T07:23:11.145Z,18.20
2023-10-29T07:25:57.824Z,18.70
2023-10-29T07:28:44.507Z,18.70
2023-10-29T07:31:31.903Z,14.00
2023-10-29T07:34:18.864Z,19.30
2023-10-29T07:37:05.605Z,18.00
2023-10-29T07:39:52.039Z,17.90
2023-10-29T07:42:38.831Z,17.00
2023-10-29T07:45:25.516Z,18.30
2023-10-29T07:48:11.914Z,18.90
2023-10-29T07:50:58.413Z,17.10
2023-10-29T07:53:45.554Z,16.90
2023-10-29T07:56:32.194Z,18.20
2023-10-29T07:59:18.737Z,18.10
2023-10-29T08:02:06.451Z,19.30
2023-10-29T08:04:52.901Z,19.20
2023-10-29T08:07:40.785Z,17.80
2023-10-29T08:10:27.083Z,16.20
2023-10-29T08:13:13.974Z,18.40
2023-10-29T08:16:00.588Z,18.10
2023-10-29T08:18:47.550Z,17.10
2023-10-29T08:21:34.561Z,17.90
2023-10-29T08:24:20.886Z,18.60
2023-10-29T08:27:08.359Z,17.10
2023-10-29T08:29:55.195Z,17.10
2023-10-29T08:32:41.582Z,18.70
2023-10-29T08:35:27.974Z,17.10
2023-10-29T08:38:15.650Z,16.30
2023-10-29T08:41:02.368Z,16.20
2023-10-29T08:43:49.281Z,16.80
2023-10-29T08:46:36.139Z,16.00
2023-10-29T08:49:22.598Z,16.80
2023-10-29T08:52:09.148Z,16.90
2023-10-29T08:54:55.871Z,17.20
2023-10-29T08:57:42.669Z,17.50
2023-10-29T09:00:38.267Z,16.60
2023-10-29T09:03:29.078Z,15.50
2023-10-29T09:06:15.979Z,16.80
2023-10-29T09:09:03.415Z,15.60
2023-10-29T09:11:54.715Z,17.60
2023-10-29T09:14:41.623Z,16.90
2023-10-29T09:17:28.408Z,16.90
2023-10-29T09:20:14.945Z,18.20
2023-10-29T09:23:02.018Z,19.30
2023-10-29T09:25:48.551Z,18.30
2023-10-29T09:28:35.316Z,17.20
2023-10-29T09:31:22.278Z,18.60
2023-10-29T09:34:09.062Z,18.40
2023-10-29T09:36:55.433Z,18.70
2023-10-29T09:39:42.156Z,17.70
2023-10-29T09:42:33.440Z,18.20
2023-10-29T09:45:24.536Z,18.20
2023-10-29T09:48:11.349Z,18.40
2023-10-29T09:50:57.966Z,17.50
2023-10-29T09:53:45.486Z,17.60
2023-10-29T09:56:35.119Z,14.70
2023-10-29T09:59:21.424Z,14.90
2023-10-29T10:02:08.240Z,17.10
2023-10-29T10:04:55.510Z,16.40
2023-10-29T10:07:42.315Z,16.20
2023-10-29T10:10:39.126Z,16.10
2023-10-29T10:13:40.546Z,15.40
2023-10-29T10:16:26.849Z,16.00
2023-10-29T10:19:14.786Z,13.70
2023-10-29T10:22:01.234Z,15.40
2023-10-29T10:24:49.651Z,15.10
2023-10-29T10:27:50.286Z,21.60
2023-10-29T10:30:39.046Z,27.20
2023-10-29T10:33:26.482Z,17.20
2023-10-29T10:36:13.601Z,13.90
2023-10-29T10:39:01.858Z,12.10
2023-10-29T10:41:49.926Z,15.80
2023-10-29T10:44:37.534Z,15.70
2023-10-29T10:47:27.882Z,17.40
2023-10-29T10:50:15.197Z,16.70
2023-10-29T10:53:02.926Z,12.30
2023-10-29T10:56:02.160Z,13.60
2023-10-29T10:58:50.604Z,16.10
2023-10-29T11:01:39.420Z,12.20
2023-10-29T11:04:28.058Z,12.60
2023-10-29T11:07:14.841Z,11.80
2023-10-29T11:10:04.061Z,14.60
2023-10-29T11:12:50.647Z,14.20
2023-10-29T11:15:47.519Z,12.30
2023-10-29T11:18:34.414Z,14.90
2023-10-29T11:21:33.123Z,15.60
2023-10-29T11:24:23.486Z,12.00
2023-10-29T11:27:38.671Z,11.50
2023-10-29T11:30:29.636Z,11.40
2023-10-29T11:33:23.013Z,11.10
2023-10-29T11:36:34.223Z,13.40
2023-10-29T11:39:30.052Z,9.50
2023-10-29T11:42:28.339Z,10.50
2023-10-29T11:45:35.934Z,10.40
2023-10-29T11:48:22.269Z,10.20
2023-10-29T11:51:12.125Z,10.10
2023-10-29T11:54:04.105Z,11.00
2023-10-29T11:56:53.912Z,21.10
2023-10-29T11:59:54.798Z,12.20
2023-10-29T12:02:44.249Z,12.70
2023-10-29T12:05:30.686Z,15.20
2023-10-29T12:08:17.831Z,11.20
2023-10-29T12:11:04.160Z,14.70
2023-10-29T12:13:50.581Z,11.50
2023-10-29T12:16:38.345Z,12.80
2023-10-29T12:19:46.372Z,14.00
2023-10-29T12:22:33.351Z,14.10
2023-10-29T12:25:21.994Z,13.80
2023-10-29T12:28:09.395Z,15.20
2023-10-29T12:30:57.875Z,14.30
2023-10-29T12:33:55.825Z,10.50
2023-10-29T12:36:52.697Z,10.70
2023-10-29T12:39:45.644Z,11.80
2023-10-29T12:42:54.918Z,9.80
2023-10-29T12:45:41.436Z,11.30
2023-10-29T12:48:28.398Z,12.60
2023-10-29T12:51:23.342Z,11.50
2023-10-29T12:54:17.743Z,9.90
2023-10-29T12:57:04.545Z,12.60
2023-10-29T12:59:51.456Z,15.10
2023-10-29T13:02:38.209Z,18.20
2023-10-29T13:05:24.774Z,11.80
2023-10-29T13:08:13.855Z,9.40
2023-10-29T13:11:01.265Z,21.60
2023-10-29T13:13:55.478Z,13.40
2023-10-29T13:16:57.416Z,11.30
2023-10-29T13:19:44.291Z,12.50
2023-10-29T13:22:30.850Z,11.90
2023-10-29T13:25:18.046Z,11.70
2023-10-29T13:28:05.675Z,11.40
2023-10-29T13:30:56.501Z,11.50
2023-10-29T13:33:44.013Z,9.50
2023-10-29T13:36:30.809Z,13.20
2023-10-29T13:39:20.167Z,11.30
2023-10-29T13:42:07.303Z,9.40
2023-10-29T13:44:57.034Z,10.40
2023-10-29T13:47:44.214Z,8.90
2023-10-29T13:50:31.513Z,11.60
2023-10-29T13:53:18.330Z,15.80
2023-10-29T13:56:12.806Z,11.00
2023-10-29T13:58:59.161Z,11.10
2023-10-29T14:01:45.602Z,12.30
2023-10-29T14:04:32.108Z,10.00
2023-10-29T14:07:18.736Z,6.70
2023-10-29T14:10:06.346Z,12.20
2023-10-29T14:12:52.942Z,48.70
2023-10-29T14:15:39.147Z,18.30
2023-10-29T14:18:25.720Z,13.00
2023-10-29T14:21:12.649Z,8.70
2023-10-29T14:24:00.130Z,8.40
2023-10-29T14:26:46.465Z,9.10
2023-10-29T14:29:33.027Z,11.90
2023-10-29T14:32:19.673Z,11.40
2023-10-29T14:35:07.129Z,15.60
2023-10-29T14:37:53.998Z,14.60
2023-10-29T14:40:40.692Z,14.10
2023-10-29T14:43:27.431Z,14.70
2023-10-29T14:46:14.114Z,10.40
2023-10-29T14:49:00.686Z,13.20
2023-10-29T14:51:47.259Z,12.00
2023-10-29T14:54:34.110Z,68.20
2023-10-29T14:57:29.659Z,21.40
2023-10-29T15:00:17.160Z,22.90
2023-10-29T15:03:04.176Z,13.30
2023-10-29T15:05:51.039Z,13.50
2023-10-29T15:08:38.348Z,15.20
2023-10-29T15:11:36.807Z,11.10
2023-10-29T15:14:23.909Z,7.90
2023-10-29T15:17:10.892Z,8.50
2023-10-29T15:20:00.627Z,6.20
2023-10-29T15:22:50.463Z,7.20
2023-10-29T15:25:44.159Z,6.60
2023-10-29T15:28:30.585Z,5.40
2023-10-29T15:31:17.969Z,4.80
2023-10-29T15:34:04.798Z,5.60
2023-10-29T15:36:51.388Z,4.50
2023-10-29T15:39:38.959Z,4.90
2023-10-29T15:42:26.389Z,4.50
2023-10-29T15:45:12.786Z,4.70
2023-10-29T15:47:59.632Z,4.20
2023-10-29T15:50:53.951Z,3.50
2023-10-29T15:53:40.701Z,3.80
2023-10-29T15:56:28.142Z,3.30
2023-10-29T15:59:14.533Z,3.80
2023-10-29T16:02:01.614Z,3.90
2023-10-29T16:04:48.459Z,4.30
2023-10-29T16:07:35.526Z,5.20
2023-10-29T16:10:22.393Z,4.50
2023-10-29T16:13:08.893Z,6.40
2023-10-29T16:15:55.467Z,4.10
2023-10-29T16:18:41.797Z,4.20
2023-10-29T16:21:28.448Z,4.20
2023-10-29T16:24:15.043Z,4.20
2023-10-29T16:27:01.943Z,5.00
2023-10-29T16:29:48.766Z,4.50
2023-10-29T16:32:35.690Z,4.70
2023-10-29T16:35:22.805Z,4.90
2023-10-29T16:38:10.352Z,4.40
2023-10-29T16:40:57.993Z,6.00
2023-10-29T16:43:48.389Z,6.20
2023-10-29T16:46:38.867Z,5.60
2023-10-29T16:49:26.005Z,5.20
2023-10-29T16:52:15.656Z,6.80
2023-10-29T16:55:02.582Z,5.90
2023-10-29T16:57:49.515Z,5.80
2023-10-29T17:00:36.435Z,5.80
2023-10-29T17:03:23.360Z,5.20
2023-10-29T17:06:11.760Z,5.60
2023-10-29T17:08:59.732Z,5.30
2023-10-29T17:11:48.725Z,4.00
2023-10-29T17:14:35.951Z,4.40
2023-10-29T17:17:23.217Z,4.50
2023-10-29T17:20:11.927Z,4.20
2023-10-29T17:22:58.852Z,4.60
2023-10-29T17:25:45.925Z,5.20
2023-10-29T17:28:32.679Z,4.80
2023-10-29T17:31:20.246Z,4.30
2023-10-29T17:34:07.658Z,4.80
2023-10-29T17:36:54.411Z,4.60
2023-10-29T17:39:41.391Z,4.80
2023-10-29T17:42:30.580Z,5.60
2023-10-29T17:45:18.004Z,6.30
2023-10-29T17:48:05.657Z,6.80
2023-10-29T17:50:59.408Z,7.40
2023-10-29T17:53:48.151Z,11.40
2023-10-29T17:56:34.917Z,14.50
2023-10-29T17:59:22.631Z,15.80
2023-10-29T18:02:09.486Z,13.00
2023-10-29T18:04:55.987Z,9.70
2023-10-29T18:07:43.422Z,9.20
2023-10-29T18:10:30.630Z,9.90
2023-10-29T18:13:17.385Z,8.40
2023-10-29T18:16:05.015Z,6.70
2023-10-29T18:18:52.326Z,5.90
2023-10-29T18:21:39.216Z,9.30
2023-10-29T18:24:26.466Z,10.40
2023-10-29T18:27:14.885Z,11.70
2023-10-29T18:30:02.738Z,12.60
2023-10-29T18:32:50.566Z,10.90
2023-10-29T18:35:37.874Z,11.70
2023-10-29T18:38:24.934Z,9.60
2023-10-29T18:41:19.679Z,11.80
2023-10-29T18:44:08.032Z,9.10
2023-10-29T18:46:54.949Z,8.00
2023-10-29T18:49:42.172Z,8.60
2023-10-29T18:52:29.159Z,6.70
2023-10-29T18:55:15.973Z,7.60
2023-10-29T18:58:03.458Z,7.10
2023-10-29T19:00:52.647Z,7.20
2023-10-29T19:06:28.956Z,6.50
2023-10-29T19:09:16.400Z,6.40
2023-10-29T19:12:06.655Z,5.40
2023-10-29T19:14:53.972Z,6.20
2023-10-29T19:17:43.042Z,6.20
2023-10-29T19:20:29.910Z,6.30
2023-10-29T19:23:16.783Z,8.50
2023-10-29T19:26:04.164Z,8.80
2023-10-29T19:28:51.456Z,9.80
2023-10-29T19:31:38.956Z,9.40
2023-10-29T19:34:27.878Z,8.40
2023-10-29T19:37:18.339Z,6.90
2023-10-29T19:40:06.926Z,6.20
2023-10-29T19:42:54.744Z,4.70
2023-10-29T19:45:41.776Z,6.00
2023-10-29T19:48:32.634Z,4.90
2023-10-29T19:51:19.980Z,5.70
2023-10-29T19:54:06.939Z,5.60
2023-10-29T19:56:53.928Z,5.30
2023-10-29T19:59:41.467Z,4.80
2023-10-29T20:02:28.881Z,4.90
2023-10-29T20:05:15.696Z,5.50
2023-10-29T20:08:02.544Z,4.80
2023-10-29T20:10:49.618Z,5.60
2023-10-29T20:13:37.923Z,5.10
2023-10-29T20:16:24.822Z,5.20
2023-10-29T20:19:11.781Z,4.70
2023-10-29T20:22:01.185Z,5.20
2023-10-29T20:24:47.800Z,5.70
2023-10-29T20:27:36.742Z,4.70
2023-10-29T20:30:24.351Z,5.00
2023-10-29T20:33:11.469Z,5.20
2023-10-29T20:35:58.702Z,5.50
2023-10-29T20:38:45.373Z,5.70
2023-10-29T20:41:32.044Z,4.80
2023-10-29T20:44:18.769Z,4.30
2023-10-29T20:47:06.825Z,5.50
2023-10-29T20:49:52.947Z,5.50
2023-10-29T20:52:40.164Z,4.80
2023-10-29T20:55:27.611Z,4.90
2023-10-29T20:58:14.836Z,4.80
2023-10-29T21:01:04.387Z,5.30
2023-10-29T21:03:51.397Z,5.50
2023-10-29T21:06:38.368Z,4.20
2023-10-29T21:09:24.977Z,4.90
2023-10-29T21:12:11.693Z,4.60
2023-10-29T21:14:58.553Z,4.50
2023-10-29T21:17:45.859Z,5.30
2023-10-29T21:20:32.994Z,4.80
2023-10-29T21:23:20.691Z,4.30
2023-10-29T21:26:07.106Z,4.80
2023-10-29T21:28:53.499Z,4.80
2023-10-29T21:31:40.243Z,4.60
2023-10-29T21:34:27.034Z,5.30
2023-10-29T21:37:13.490Z,5.40
2023-10-29T21:40:23.437Z,5.10
2023-10-29T21:43:18.546Z,4.30
2023-10-29T21:46:06.667Z,5.40
2023-10-29T21:49:07.857Z,5.60
2023-10-29T21:52:04.711Z,4.60
2023-10-29T21:54:56.702Z,5.90
2023-10-29T21:57:51.297Z,5.40
2023-10-29T22:00:38.350Z,4.60
2023-10-29T22:03:34.010Z,5.60
2023-10-29T22:06:33.824Z,5.20
2023-10-29T22:09:20.188Z,4.70
2023-10-29T22:12:06.894Z,4.50
2023-10-29T22:14:54.019Z,5.60
2023-10-29T22:17:40.509Z,5.30
2023-10-29T22:20:30.291Z,5.10
2023-10-29T22:23:16.851Z,4.80
2023-10-29T22:26:04.357Z,4.90
2023-10-29T22:28:51.000Z,5.00
2023-10-29T22:31:38.443Z,4.50
2023-10-29T22:34:24.904Z,5.40
2023-10-29T22:37:22.142Z,5.10
2023-10-29T22:40:11.406Z,4.10
2023-10-29T22:43:04.246Z,4.50
2023-10-29T22:45:50.779Z,4.50
2023-10-29T22:48:37.318Z,3.90
2023-10-29T22:51:32.794Z,4.10
2023-10-29T22:54:19.376Z,3.90
2023-10-29T22:57:11.356Z,4.10
2023-10-29T22:59:58.255Z,3.80
2023-10-29T23:02:45.713Z,4.00
2023-10-29T23:05:33.595Z,3.80
2023-10-29T23:08:19.999Z,4.60
2023-10-29T23:11:07.587Z,3.90
2023-10-29T23:13:54.257Z,3.60
2023-10-29T23:16:41.090Z,3.80
2023-10-29T23:19:28.248Z,4.40
2023-10-29T23:22:14.976Z,5.00
2023-10-29T23:25:01.314Z,3.80
2023-10-29T23:27:47.862Z,4.30
2023-10-29T23:30:34.397Z,3.70
2023-10-29T23:33:20.798Z,3.50
2023-10-29T23:36:08.004Z,3.50
2023-10-29T23:38:54.115Z,3.90
2023-10-29T23:41:41.024Z,2.80
2023-10-29T23:44:27.873Z,2.80
2023-10-29T23:47:14.690Z,3.90
2023-10-29T23:50:01.630Z,2.80
2023-10-29T23:52:48.242Z,3.20
2023-10-29T23:55:34.866Z,3.10
2023-10-29T23:58:21.583Z,4.30
